createdAt,value
2019-03-27T00:00:27.354Z,99397.73
2019-03-27T00:02:55.649Z,99398.44
2019-03-27T00:05:24.101Z,99396.24
2019-03-27T00:07:52.521Z,99390.06
2019-03-27T00:10:21.203Z,99393.41
2019-03-27T00:12:49.497Z,99385.52
2019-03-27T00:15:18.631Z,99385.52
2019-03-27T00:17:46.964Z,99389.59
2019-03-27T00:20:16.502Z,99388.70
2019-03-27T00:22:44.865Z,99389.02
2019-03-27T00:25:13.191Z,99388.22
2019-03-27T00:27:41.509Z,99390.61
2019-03-27T00:30:10.781Z,99397.58
2019-03-27T00:32:39.151Z,99395.51
2019-03-27T00:35:09.320Z,99401.81
2019-03-27T00:37:37.645Z,99400.03
2019-03-27T00:40:07.277Z,99399.05
2019-03-27T00:42:35.645Z,99394.42
2019-03-27T00:45:08.057Z,99395.33
2019-03-27T00:47:36.352Z,99400.80
2019-03-27T00:50:07.567Z,99392.92
2019-03-27T00:52:35.937Z,99391.36
2019-03-27T00:55:05.619Z,99392.88
2019-03-27T00:57:34.008Z,99397.91
2019-03-27T01:00:02.418Z,99400.81
2019-03-27T01:02:31.046Z,99401.58
2019-03-27T01:04:59.360Z,99392.84
2019-03-27T01:07:27.722Z,99394.97
2019-03-27T01:09:56.100Z,99396.69
2019-03-27T01:12:25.233Z,99393.81
2019-03-27T01:14:53.531Z,99393.63
2019-03-27T01:17:21.982Z,99394.87
2019-03-27T01:19:50.307Z,99386.80
2019-03-27T01:22:18.787Z,99391.59
2019-03-27T01:24:47.151Z,99397.80
2019-03-27T01:27:15.495Z,99396.00
2019-03-27T01:29:43.800Z,99400.85
2019-03-27T01:32:12.179Z,99398.47
2019-03-27T01:34:40.487Z,99398.47
2019-03-27T01:37:08.802Z,99396.86
2019-03-27T01:39:37.485Z,99393.13
2019-03-27T01:42:05.967Z,99389.98
2019-03-27T01:44:34.276Z,99388.35
2019-03-27T01:47:02.672Z,99390.38
2019-03-27T01:49:30.983Z,99390.57
2019-03-27T01:51:59.364Z,99399.30
2019-03-27T01:54:27.892Z,99398.58
2019-03-27T01:56:56.261Z,99399.97
2019-03-27T01:59:24.625Z,99401.88
2019-03-27T02:01:53.040Z,99408.88
2019-03-27T02:04:21.351Z,99411.63
2019-03-27T02:06:49.737Z,99411.77
2019-03-27T02:09:18.040Z,99407.26
2019-03-27T02:11:46.468Z,99404.50
2019-03-27T02:14:14.769Z,99411.63
2019-03-27T02:16:43.105Z,99409.86
2019-03-27T02:19:11.486Z,99402.42
2019-03-27T02:21:39.819Z,99412.43
2019-03-27T02:24:08.116Z,99416.25
2019-03-27T02:26:36.555Z,99412.27
2019-03-27T02:29:04.857Z,99415.54
2019-03-27T02:31:33.187Z,99409.97
2019-03-27T02:34:02.007Z,99421.95
2019-03-27T02:36:30.360Z,99418.48
2019-03-27T02:38:58.768Z,99416.01
2019-03-27T02:41:27.147Z,99420.70
2019-03-27T02:43:55.839Z,99412.25
2019-03-27T02:46:25.523Z,99421.70
2019-03-27T02:48:54.414Z,99420.19
2019-03-27T02:51:22.766Z,99420.19
2019-03-27T02:53:51.091Z,99416.78
2019-03-27T02:56:19.392Z,99422.17
2019-03-27T02:58:47.802Z,99422.24
2019-03-27T03:01:16.137Z,99419.29
2019-03-27T03:03:44.531Z,99423.75
2019-03-27T03:06:13.001Z,99429.44
2019-03-27T03:08:41.309Z,99408.28
2019-03-27T03:11:09.709Z,99426.48
2019-03-27T03:13:38.869Z,99429.14
2019-03-27T03:16:07.262Z,99423.63
2019-03-27T03:18:35.580Z,99434.39
2019-03-27T03:21:04.148Z,99435.32
2019-03-27T03:23:32.602Z,99428.48
2019-03-27T03:26:01.073Z,99435.45
2019-03-27T03:28:29.768Z,99432.78
2019-03-27T03:30:58.143Z,99436.14
2019-03-27T03:33:26.547Z,99437.81
2019-03-27T03:35:54.928Z,99434.04
2019-03-27T03:38:23.256Z,99424.63
2019-03-27T03:40:51.575Z,99438.48
2019-03-27T03:43:20.064Z,99440.33
2019-03-27T03:45:48.750Z,99433.08
2019-03-27T03:48:17.102Z,99450.23
2019-03-27T03:50:45.965Z,99441.81
2019-03-27T03:53:14.821Z,99440.08
2019-03-27T03:55:43.899Z,99431.09
2019-03-27T03:58:17.174Z,99382.30
2019-03-27T04:00:45.576Z,99433.20
2019-03-27T04:03:14.415Z,99441.01
2019-03-27T04:05:43.055Z,99455.61
2019-03-27T04:08:11.419Z,99440.03
2019-03-27T04:10:39.893Z,99452.19
2019-03-27T04:13:08.272Z,99444.71
2019-03-27T04:15:36.682Z,99454.23
2019-03-27T04:18:05.068Z,99447.39
2019-03-27T04:20:33.379Z,99439.03
2019-03-27T04:23:01.686Z,99443.79
2019-03-27T04:25:30.092Z,99454.20
2019-03-27T04:27:58.766Z,99447.75
2019-03-27T04:30:27.142Z,99446.28
2019-03-27T04:32:55.459Z,99450.28
2019-03-27T04:35:24.060Z,99445.80
2019-03-27T04:37:52.502Z,99456.78
2019-03-27T04:40:20.870Z,99459.75
2019-03-27T04:42:49.187Z,99464.39
2019-03-27T04:45:17.792Z,99468.00
2019-03-27T04:47:46.586Z,99469.91
2019-03-27T04:50:15.052Z,99477.45
2019-03-27T04:52:43.469Z,99476.03
2019-03-27T04:55:11.844Z,99478.09
2019-03-27T04:57:40.185Z,99477.70
2019-03-27T05:00:09.571Z,99478.52
2019-03-27T05:02:37.950Z,99481.91
2019-03-27T05:05:07.491Z,99490.14
2019-03-27T05:07:35.894Z,99497.44
2019-03-27T05:10:05.538Z,99499.30
2019-03-27T05:12:33.921Z,99494.92
2019-03-27T05:15:02.340Z,99494.98
2019-03-27T05:17:30.678Z,99488.97
2019-03-27T05:19:58.995Z,99493.86
2019-03-27T05:22:27.451Z,99492.14
2019-03-27T05:24:55.791Z,99502.89
2019-03-27T05:27:24.109Z,99496.03
2019-03-27T05:29:53.787Z,99502.28
2019-03-27T05:32:22.470Z,99503.78
2019-03-27T05:34:50.777Z,99509.42
2019-03-27T05:37:19.152Z,99509.42
2019-03-27T05:39:47.476Z,99502.48
2019-03-27T05:42:15.886Z,99507.93
2019-03-27T05:44:44.587Z,99508.48
2019-03-27T05:47:12.903Z,99512.64
2019-03-27T05:49:41.228Z,99517.09
2019-03-27T05:52:09.538Z,99524.83
2019-03-27T05:54:37.942Z,99524.51
2019-03-27T05:57:06.324Z,99523.45
2019-03-27T05:59:34.660Z,99524.45
2019-03-27T06:02:02.965Z,99530.63
2019-03-27T06:04:31.744Z,99536.91
2019-03-27T06:07:00.054Z,99531.42
2019-03-27T06:09:28.362Z,99538.37
2019-03-27T06:11:56.821Z,99533.50
2019-03-27T06:14:25.150Z,99543.70
2019-03-27T06:16:53.477Z,99552.20
2019-03-27T06:19:21.793Z,99549.28
2019-03-27T06:21:50.114Z,99553.98
2019-03-27T06:24:18.427Z,99544.73
2019-03-27T06:26:46.766Z,99548.05
2019-03-27T06:29:15.927Z,99552.84
2019-03-27T06:31:44.755Z,99552.89
2019-03-27T06:34:13.085Z,99562.59
2019-03-27T06:36:41.388Z,99562.16
2019-03-27T06:39:09.911Z,99569.41
2019-03-27T06:41:38.298Z,99560.02
2019-03-27T06:44:06.806Z,99565.40
2019-03-27T06:46:35.108Z,99559.48
2019-03-27T06:49:03.424Z,99566.60
2019-03-27T06:51:39.880Z,99563.53
2019-03-27T06:54:01.768Z,99565.44
2019-03-27T06:56:30.107Z,99566.38
2019-03-27T06:58:58.405Z,99575.88
2019-03-27T07:01:26.793Z,99568.16
2019-03-27T07:03:55.106Z,99571.59
2019-03-27T07:06:23.415Z,99580.20
2019-03-27T07:08:51.736Z,99585.91
2019-03-27T07:11:20.039Z,99581.20
2019-03-27T07:13:48.355Z,99580.07
2019-03-27T07:16:16.664Z,99582.52
2019-03-27T07:18:44.981Z,99599.58
2019-03-27T07:21:13.283Z,99597.68
2019-03-27T07:23:41.592Z,99590.81
2019-03-27T07:26:09.923Z,99607.59
2019-03-27T07:28:38.227Z,99597.52
2019-03-27T07:31:06.560Z,99572.09
2019-03-27T07:33:35.223Z,99610.82
2019-03-27T07:36:03.553Z,99606.63
2019-03-27T07:38:31.877Z,99609.66
2019-03-27T07:41:00.178Z,99605.48
2019-03-27T07:43:28.496Z,99616.12
2019-03-27T07:45:56.877Z,99624.14
2019-03-27T07:48:25.197Z,99618.45
2019-03-27T07:50:53.503Z,99613.02
2019-03-27T07:53:22.618Z,99615.41
2019-03-27T07:55:51.183Z,99615.23
2019-03-27T07:58:19.491Z,99615.90
2019-03-27T08:00:47.820Z,99621.51
2019-03-27T08:03:16.122Z,99617.07
2019-03-27T08:05:44.517Z,99623.03
2019-03-27T08:08:12.899Z,99621.13
2019-03-27T08:10:41.291Z,99617.00
2019-03-27T08:13:09.595Z,99623.48
2019-03-27T08:15:40.685Z,99621.85
2019-03-27T08:18:07.958Z,99625.58
2019-03-27T08:20:36.351Z,99622.45
2019-03-27T08:23:04.730Z,99620.70
2019-03-27T08:25:33.055Z,99621.82
2019-03-27T08:28:01.435Z,99622.59
2019-03-27T08:30:30.158Z,99621.28
2019-03-27T08:32:58.468Z,99628.70
2019-03-27T08:35:26.780Z,99631.64
2019-03-27T08:37:55.311Z,99628.94
2019-03-27T08:40:23.615Z,99627.07
2019-03-27T08:42:51.947Z,99630.54
2019-03-27T08:45:20.328Z,99637.39
2019-03-27T08:47:48.672Z,99630.89
2019-03-27T08:50:17.206Z,99640.77
2019-03-27T08:52:45.515Z,99637.19
2019-03-27T08:55:14.099Z,99640.89
2019-03-27T08:57:42.478Z,99642.19
2019-03-27T09:00:13.342Z,99645.60
2019-03-27T09:02:41.645Z,99644.23
2019-03-27T09:05:11.297Z,99638.91
2019-03-27T09:07:39.630Z,99644.81
2019-03-27T09:10:09.784Z,99646.45
2019-03-27T09:12:38.184Z,99648.47
2019-03-27T09:15:08.807Z,99655.68
2019-03-27T09:17:37.202Z,99653.66
2019-03-27T09:20:07.118Z,99655.66
2019-03-27T09:22:35.438Z,99660.34
2019-03-27T09:25:05.708Z,99657.66
2019-03-27T09:27:34.182Z,99655.44
2019-03-27T09:30:02.555Z,99658.23
2019-03-27T09:32:30.871Z,99667.39
2019-03-27T09:34:59.270Z,99661.92
2019-03-27T09:37:27.577Z,99669.05
2019-03-27T09:39:55.902Z,99663.02
2019-03-27T09:42:24.610Z,99662.37
2019-03-27T09:44:52.922Z,99662.00
2019-03-27T09:47:21.408Z,99662.84
2019-03-27T09:49:50.191Z,99664.30
2019-03-27T09:52:18.636Z,99678.48
2019-03-27T09:54:47.014Z,99672.25
2019-03-27T09:57:15.435Z,99666.36
2019-03-27T09:59:43.828Z,99664.92
2019-03-27T10:02:12.461Z,99678.48
2019-03-27T10:04:40.832Z,99670.97
2019-03-27T10:07:09.153Z,99665.41
2019-03-27T10:09:37.463Z,99667.27
2019-03-27T10:12:05.874Z,99669.03
2019-03-27T10:14:34.212Z,99664.99
2019-03-27T10:17:02.534Z,99664.43
2019-03-27T10:19:30.845Z,99662.66
2019-03-27T10:21:59.153Z,99664.97
2019-03-27T10:24:28.004Z,99661.17
2019-03-27T10:26:56.379Z,99655.55
2019-03-27T10:29:24.709Z,99658.52
2019-03-27T10:31:53.034Z,99661.33
2019-03-27T10:34:21.358Z,99660.24
2019-03-27T10:36:50.015Z,99660.84
2019-03-27T10:39:18.699Z,99663.02
2019-03-27T10:41:47.025Z,99656.89
2019-03-27T10:44:17.522Z,99660.31
2019-03-27T10:46:45.385Z,99662.09
2019-03-27T10:49:13.710Z,99664.84
2019-03-27T10:51:42.011Z,99660.84
2019-03-27T10:54:10.389Z,99664.92
2019-03-27T10:56:39.215Z,99660.27
2019-03-27T10:59:07.903Z,99668.22
2019-03-27T11:01:36.210Z,99667.53
2019-03-27T11:04:04.603Z,99668.26
2019-03-27T11:06:32.977Z,99659.23
2019-03-27T11:09:01.306Z,99658.29
2019-03-27T11:11:29.702Z,99666.84
2019-03-27T11:13:58.025Z,99667.45
2019-03-27T11:16:26.457Z,99664.70
2019-03-27T11:18:54.786Z,99657.87
2019-03-27T11:21:23.497Z,99671.92
2019-03-27T11:23:51.760Z,99667.36
2019-03-27T11:26:20.316Z,99671.38
2019-03-27T11:28:48.636Z,99677.41
2019-03-27T11:31:16.968Z,99664.31
2019-03-27T11:33:45.275Z,99666.95
2019-03-27T11:36:13.933Z,99665.33
2019-03-27T11:38:42.327Z,99659.72
2019-03-27T11:41:12.228Z,99660.44
2019-03-27T11:43:53.863Z,99663.47
2019-03-27T11:46:10.860Z,99675.49
2019-03-27T11:48:39.191Z,99660.17
2019-03-27T11:51:07.634Z,99665.74
2019-03-27T11:53:35.963Z,99669.95
2019-03-27T11:56:04.703Z,99673.10
2019-03-27T11:58:33.096Z,99662.33
2019-03-27T12:01:01.409Z,99660.64
2019-03-27T12:03:29.707Z,99664.65
2019-03-27T12:05:58.032Z,99663.30
2019-03-27T12:08:26.337Z,99662.36
2019-03-27T12:10:55.064Z,99665.80
2019-03-27T12:13:23.364Z,99662.03
2019-03-27T12:15:51.707Z,99665.19
2019-03-27T12:18:20.069Z,99659.60
2019-03-27T12:20:58.968Z,99665.32
2019-03-27T12:23:18.910Z,99670.53
2019-03-27T12:25:47.281Z,99665.61
2019-03-27T12:28:15.608Z,99670.26
2019-03-27T12:30:44.279Z,99662.47
2019-03-27T12:33:12.598Z,99663.89
2019-03-27T12:35:41.083Z,99656.42
2019-03-27T12:38:09.406Z,99656.34
2019-03-27T12:40:37.713Z,99663.27
2019-03-27T12:43:06.097Z,99657.13
2019-03-27T12:45:34.475Z,99658.06
2019-03-27T12:48:02.803Z,99657.23
2019-03-27T12:50:31.106Z,99655.52
2019-03-27T12:52:59.411Z,99654.96
2019-03-27T12:55:27.888Z,99644.85
2019-03-27T12:57:56.193Z,99654.06
2019-03-27T13:00:24.956Z,99659.94
2019-03-27T13:02:53.322Z,99650.70
2019-03-27T13:05:22.022Z,99649.72
2019-03-27T13:07:50.534Z,99644.14
2019-03-27T13:10:19.102Z,99641.95
2019-03-27T13:12:47.475Z,99645.15
2019-03-27T13:15:15.920Z,99643.05
2019-03-27T13:17:44.248Z,99645.84
2019-03-27T13:20:13.495Z,99647.20
2019-03-27T13:22:41.825Z,99646.88
2019-03-27T13:25:10.500Z,99637.24
2019-03-27T13:27:40.078Z,99639.21
2019-03-27T13:30:09.107Z,99643.67
2019-03-27T13:32:37.718Z,99644.38
2019-03-27T13:35:06.902Z,99645.05
2019-03-27T13:37:35.219Z,99634.92
2019-03-27T13:40:09.039Z,99637.75
2019-03-27T13:42:37.415Z,99640.18
2019-03-27T13:45:07.367Z,99642.82
2019-03-27T13:47:36.491Z,99638.30
2019-03-27T13:50:12.921Z,99642.14
2019-03-27T13:52:40.952Z,99636.09
2019-03-27T13:55:09.718Z,99629.39
2019-03-27T13:57:38.021Z,99642.27
2019-03-27T14:00:09.251Z,99637.43
2019-03-27T14:02:38.040Z,99629.53
2019-03-27T14:05:06.972Z,99638.10
2019-03-27T14:07:35.363Z,99633.22
2019-03-27T14:10:04.904Z,99634.83
2019-03-27T14:12:33.349Z,99635.53
2019-03-27T14:15:01.722Z,99637.16
2019-03-27T14:17:30.039Z,99631.53
2019-03-27T14:19:58.348Z,99638.55
2019-03-27T14:22:26.670Z,99636.36
2019-03-27T14:24:54.971Z,99638.58
2019-03-27T14:27:23.604Z,99644.50
2019-03-27T14:29:52.000Z,99641.31
2019-03-27T14:32:20.312Z,99634.98
2019-03-27T14:34:48.658Z,99637.16
2019-03-27T14:37:17.340Z,99640.39
2019-03-27T14:39:45.723Z,99639.66
2019-03-27T14:42:14.120Z,99642.80
2019-03-27T14:44:42.426Z,99635.95
2019-03-27T14:47:11.064Z,99643.28
2019-03-27T14:49:39.768Z,99639.11
2019-03-27T14:52:08.760Z,99639.97
2019-03-27T14:54:37.095Z,99641.19
2019-03-27T14:57:05.496Z,99643.36
2019-03-27T14:59:33.799Z,99640.11
2019-03-27T15:02:02.271Z,99639.02
2019-03-27T15:04:30.978Z,99642.91
2019-03-27T15:06:59.283Z,99646.12
2019-03-27T15:09:27.946Z,99644.48
2019-03-27T15:11:56.245Z,99643.92
2019-03-27T15:14:24.583Z,99643.59
2019-03-27T15:16:52.884Z,99640.44
2019-03-27T15:19:21.566Z,99638.64
2019-03-27T15:21:49.937Z,99638.34
2019-03-27T15:24:20.623Z,99638.01
2019-03-27T15:26:48.300Z,99643.81
2019-03-27T15:29:16.610Z,99646.66
2019-03-27T15:31:45.076Z,99640.33
2019-03-27T15:34:13.365Z,99643.47
2019-03-27T15:36:42.038Z,99637.77
2019-03-27T15:39:10.285Z,99642.30
2019-03-27T15:41:38.596Z,99643.61
2019-03-27T15:44:06.920Z,99643.28
2019-03-27T15:46:35.225Z,99640.09
2019-03-27T15:49:03.551Z,99642.97
2019-03-27T15:51:31.861Z,99637.27
2019-03-27T15:54:00.551Z,99639.52
2019-03-27T15:56:29.242Z,99642.23
2019-03-27T15:58:57.548Z,99642.19
2019-03-27T16:01:25.885Z,99650.41
2019-03-27T16:03:54.487Z,99645.59
2019-03-27T16:06:22.814Z,99645.48
2019-03-27T16:08:51.232Z,99649.86
2019-03-27T16:11:19.548Z,99648.67
2019-03-27T16:13:47.907Z,99650.89
2019-03-27T16:16:16.431Z,99647.98
2019-03-27T16:18:44.731Z,99647.62
2019-03-27T16:21:13.058Z,99647.05
2019-03-27T16:23:41.359Z,99650.45
2019-03-27T16:26:09.729Z,99652.75
2019-03-27T16:28:38.058Z,99656.59
2019-03-27T16:31:06.434Z,99655.36
2019-03-27T16:33:34.750Z,99648.75
2019-03-27T16:36:03.446Z,99648.48
2019-03-27T16:38:31.851Z,99648.64
2019-03-27T16:41:00.525Z,99653.42
2019-03-27T16:43:28.844Z,99655.56
2019-03-27T16:45:57.163Z,99661.81
2019-03-27T16:48:25.470Z,99666.02
2019-03-27T16:50:54.738Z,99661.52
2019-03-27T16:53:23.075Z,99662.84
2019-03-27T16:55:51.729Z,99666.34
2019-03-27T16:58:20.442Z,99669.27
2019-03-27T17:00:48.827Z,99670.25
2019-03-27T17:03:17.483Z,99671.00
2019-03-27T17:05:53.753Z,99678.86
2019-03-27T17:08:16.195Z,99681.47
2019-03-27T17:10:44.491Z,99681.37
2019-03-27T17:13:12.835Z,99686.85
2019-03-27T17:15:41.137Z,99680.41
2019-03-27T17:18:09.504Z,99684.41
2019-03-27T17:20:37.904Z,99685.17
2019-03-27T17:23:17.476Z,99680.52
2019-03-27T17:25:36.658Z,99688.37
2019-03-27T17:28:05.126Z,99695.50
2019-03-27T17:30:33.454Z,99687.16
2019-03-27T17:33:02.063Z,99703.00
2019-03-27T17:35:30.428Z,99700.03
2019-03-27T17:37:59.131Z,99699.76
2019-03-27T17:40:27.507Z,99695.11
2019-03-27T17:42:56.205Z,99699.03
2019-03-27T17:45:24.603Z,99700.34
2019-03-27T17:47:52.935Z,99706.43
2019-03-27T17:50:21.325Z,99709.31
2019-03-27T17:52:49.708Z,99710.45
2019-03-27T17:55:18.318Z,99713.65
2019-03-27T17:57:46.648Z,99717.32
2019-03-27T18:00:17.623Z,99720.00
2019-03-27T18:02:46.009Z,99716.30
2019-03-27T18:05:14.722Z,99721.75
2019-03-27T18:07:43.126Z,99722.57
2019-03-27T18:10:11.673Z,99727.62
2019-03-27T18:12:40.050Z,99721.59
2019-03-27T18:15:09.169Z,99722.39
2019-03-27T18:17:37.548Z,99719.04
2019-03-27T18:20:06.273Z,99727.45
2019-03-27T18:22:35.571Z,99734.58
2019-03-27T18:25:05.433Z,99737.03
2019-03-27T18:27:34.144Z,99741.02
2019-03-27T18:30:02.839Z,99739.14
2019-03-27T18:32:31.301Z,99742.87
2019-03-27T18:34:59.607Z,99738.15
2019-03-27T18:37:27.930Z,99739.04
2019-03-27T18:39:56.416Z,99742.93
2019-03-27T18:42:24.742Z,99745.16
2019-03-27T18:44:53.049Z,99744.37
2019-03-27T18:47:21.348Z,99749.53
2019-03-27T18:49:49.675Z,99751.52
2019-03-27T18:52:17.991Z,99762.16
2019-03-27T18:54:46.318Z,99761.95
2019-03-27T18:57:15.052Z,99762.73
2019-03-27T18:59:43.420Z,99769.53
2019-03-27T19:02:11.726Z,99771.03
2019-03-27T19:04:40.053Z,99773.65
2019-03-27T19:07:08.356Z,99776.33
2019-03-27T19:09:36.682Z,99773.36
2019-03-27T19:12:05.149Z,99777.38
2019-03-27T19:14:33.521Z,99774.58
2019-03-27T19:17:02.181Z,99767.99
2019-03-27T19:19:30.764Z,99778.44
2019-03-27T19:21:59.106Z,99782.97
2019-03-27T19:24:27.421Z,99783.09
2019-03-27T19:26:55.733Z,99782.00
2019-03-27T19:29:24.063Z,99789.34
2019-03-27T19:31:52.428Z,99791.19
2019-03-27T19:34:20.761Z,99797.70
2019-03-27T19:36:49.134Z,99794.14
2019-03-27T19:39:17.508Z,99794.05
2019-03-27T19:41:45.971Z,99793.06
2019-03-27T19:44:14.347Z,99794.38
2019-03-27T19:46:42.740Z,99799.55
2019-03-27T19:49:11.265Z,99792.33
2019-03-27T19:51:39.657Z,99794.56
2019-03-27T19:54:08.412Z,99797.25
2019-03-27T19:56:36.915Z,99799.80
2019-03-27T19:59:05.310Z,99792.55
2019-03-27T20:01:33.695Z,99800.56
2019-03-27T20:04:02.021Z,99797.18
2019-03-27T20:06:30.410Z,99799.64
2019-03-27T20:08:58.732Z,99800.59
2019-03-27T20:11:27.066Z,99807.55
2019-03-27T20:13:55.725Z,99804.05
2019-03-27T20:16:24.039Z,99802.67
2019-03-27T20:18:52.364Z,99807.37
2019-03-27T20:21:20.666Z,99808.67
2019-03-27T20:23:49.145Z,99814.77
2019-03-27T20:26:17.450Z,99813.05
2019-03-27T20:28:45.778Z,99813.22
2019-03-27T20:31:14.453Z,99813.66
2019-03-27T20:33:42.762Z,99816.94
2019-03-27T20:36:13.156Z,99807.55
2019-03-27T20:38:41.188Z,99813.78
2019-03-27T20:41:09.646Z,99806.47
2019-03-27T20:43:38.020Z,99806.11
2019-03-27T20:46:06.793Z,99808.94
2019-03-27T20:48:36.198Z,99818.31
2019-03-27T20:51:04.615Z,99798.39
2019-03-27T20:53:32.924Z,99812.31
2019-03-27T20:56:01.248Z,99809.95
2019-03-27T20:58:29.556Z,99810.75
2019-03-27T21:00:57.938Z,99813.45
2019-03-27T21:03:26.269Z,99815.39
2019-03-27T21:05:54.581Z,99817.31
2019-03-27T21:08:22.978Z,99815.63
2019-03-27T21:10:51.358Z,99811.93
2019-03-27T21:13:19.688Z,99809.53
2019-03-27T21:15:48.290Z,99804.81
2019-03-27T21:18:16.617Z,99803.89
2019-03-27T21:20:44.912Z,99808.14
2019-03-27T21:23:13.258Z,99811.05
2019-03-27T21:25:41.628Z,99811.17
2019-03-27T21:28:09.933Z,99813.03
2019-03-27T21:30:38.253Z,99816.95
2019-03-27T21:33:06.590Z,99813.45
2019-03-27T21:35:34.903Z,99811.88
2019-03-27T21:38:03.207Z,99810.56
2019-03-27T21:40:31.536Z,99812.91
2019-03-27T21:42:59.911Z,99814.42
2019-03-27T21:45:28.236Z,99813.32
2019-03-27T21:47:56.544Z,99816.99
2019-03-27T21:50:24.844Z,99822.19
2019-03-27T21:53:00.342Z,99815.27
2019-03-27T21:55:23.402Z,99811.66
2019-03-27T21:57:51.912Z,99822.22
2019-03-27T22:00:37.668Z,99821.86
2019-03-27T22:03:07.411Z,99823.39
2019-03-27T22:05:35.965Z,99825.84
2019-03-27T22:08:04.566Z,99817.58
2019-03-27T22:10:32.941Z,99816.21
2019-03-27T22:13:01.249Z,99820.97
2019-03-27T22:15:29.933Z,99825.28
2019-03-27T22:17:58.240Z,99822.22
2019-03-27T22:20:26.561Z,99828.08
2019-03-27T22:22:54.873Z,99827.19
2019-03-27T22:25:35.202Z,99825.72
2019-03-27T22:27:53.367Z,99822.30
2019-03-27T22:30:21.758Z,99835.45
2019-03-27T22:32:50.346Z,99829.84
2019-03-27T22:35:18.648Z,99828.14
2019-03-27T22:37:47.990Z,99826.27
2019-03-27T22:40:16.566Z,99834.73
2019-03-27T22:42:44.922Z,99823.16
2019-03-27T22:45:13.373Z,99823.47
2019-03-27T22:47:41.695Z,99825.83
2019-03-27T22:50:10.142Z,99825.10
2019-03-27T22:52:38.465Z,99825.69
2019-03-27T22:55:07.816Z,99824.08
2019-03-27T22:57:36.415Z,99831.75
2019-03-27T23:00:09.467Z,99823.19
2019-03-27T23:02:37.837Z,99822.39
2019-03-27T23:05:07.192Z,99824.36
2019-03-27T23:07:35.581Z,99819.77
2019-03-27T23:10:05.656Z,99821.33
2019-03-27T23:12:33.961Z,99818.83
2019-03-27T23:15:02.292Z,99822.72
2019-03-27T23:17:30.593Z,99825.36
2019-03-27T23:19:58.920Z,99822.28
2019-03-27T23:22:27.229Z,99826.16
2019-03-27T23:24:55.533Z,99827.15
2019-03-27T23:27:23.928Z,99821.89
2019-03-27T23:29:52.237Z,99825.80
2019-03-27T23:32:20.558Z,99825.91
2019-03-27T23:34:49.032Z,99816.88
2019-03-27T23:37:17.353Z,99817.75
2019-03-27T23:39:45.666Z,99829.34
2019-03-27T23:42:16.290Z,99826.72
2019-03-27T23:44:44.089Z,99825.34
2019-03-27T23:47:12.425Z,99828.58
2019-03-27T23:49:40.823Z,99829.31
2019-03-27T23:52:09.128Z,99829.39
2019-03-27T23:54:37.458Z,99834.36
2019-03-27T23:57:07.302Z,99837.38
2019-03-27T23:59:35.698Z,99829.92
